Nearby METAR Reports

METAR is the scheduled surface weather observation taken hourly at civil and military airport locations.

METAR is an acronym from the French language and roughly translates as Aviation Routine Weather Report.

 

EGPL - Benbecula Island, United Kingdom
Distance from station: WNW 41mi, 66km
Updated: 10/07/2020 20:50
Overcast
Overcast
 Wind from WNW
Wind: WNW 14 mph , 22 km/h
Temperature: 13°C
Dew Point: 8°C
Humidity: 72%
Barometer: 1021 hPa
Clouds: Overcast
Visibility: 6 miles , 10 km
Cloud details: Few Clouds 792 m
Overcast 1158 m
2020/07/10 19:50 EGPL 101950Z AUTO 30012KT 9999 FEW026/// OVC038/// 13/08 Q1021
EGPU - Tiree Island, United Kingdom
Distance from station: SSW 56mi, 90km
Updated: 10/07/2020 20:20
Mostly cloudy
Mostly cloudy
 Wind from NW
Wind: NW 12 mph , 19 km/h
Temperature: 13°C
Dew Point: 10°C
Humidity: 82%
Barometer: 1021 hPa
Clouds: Mostly cloudy
Visibility: 6 miles , 10 km
Cloud details: Few Clouds 1189 m
Mostly cloudy 1372 m
2020/07/10 19:20 EGPU 101920Z AUTO 32010KT 9999 FEW039/// BKN045/// 13/10 Q1021
 
EGEO - Oban Airport, United Kingdom
Distance from station: SE 65mi, 105km
Updated: 02/07/2020 15:50
NOT Current
Partly cloudy
Partly cloudy
 Wind from W
Wind: W 14 mph , 22 km/h
Temperature: 14°C
Dew Point: 9°C
Humidity: 72%
Barometer: 1011 hPa
Clouds: Partly cloudy
Visibility: 6 miles , 10 km
Cloud details: Partly cloudy 1067 m
2020/07/02 14:50 EGEO 021450Z 28012KT 9999 SCT035 14/09 Q1011
EGPO - Stornoway, United Kingdom
Distance from station: 0 66mi, 106km
Updated: 10/07/2020 20:50
Overcast
Overcast
 Wind from WNW
Wind: WNW 13 mph , 20 km/h
Temperature: 12°C
Dew Point: 9°C
Humidity: 82%
Barometer: 1019 hPa
Clouds: Overcast
Visibility: 6 miles , 10 km
Cloud details: Few Clouds 518 m
Partly cloudy 762 m
Overcast 1158 m
2020/07/10 19:50 EGPO 101950Z AUTO 29011KT 9999 FEW017/// SCT025/// OVC038/// 12/09 Q1019
 
EGPE - Inverness/Dalcro, United Kingdom
Distance from station: ENE 88mi, 141km
Updated: 10/07/2020 20:50
Partly cloudy
Partly cloudy
 Wind from WSW
Wind: WSW 9 mph , 15 km/h
Temperature: 14°C
Dew Point: 8°C
Humidity: 67%
Barometer: 1018 hPa
Clouds: Partly cloudy
Visibility: 6 miles , 10 km
Cloud details: Partly cloudy 1219 m
2020/07/10 19:50 EGPE 101950Z 25008KT 9999 SCT040 14/08 Q1018
EGQA - Tain Range (saws, United Kingdom
Distance from station: ENE 97mi, 156km
Updated: 09/07/2020 13:50
NOT Current
Nearby showers, Partly cloudy
Nearby showers, Partly cloudy
 Wind from SSE
Wind: SSE 7 mph , 11 km/h
Summary: Nearby Showers
Clouds: Partly cloudy
Visibility: 6 miles , 10 km
Cloud details: Few Clouds 183 m
Partly cloudy 762 m
2020/07/09 12:50 EGQA 091250Z 15006KT 9999 VCSH FEW006 SCT025 16/// Q1015 RMK BLU
 
EGQK - Kinloss Raf, United Kingdom
Distance from station: ENE 107mi, 171km
Updated: 10/07/2020 19:50
Mostly cloudy
Mostly cloudy
 Wind from NW
Wind: NW 10 mph , 17 km/h
Temperature: 14°C
Dew Point: 9°C
Humidity: 72%
Barometer: 1017 hPa
Clouds: Mostly cloudy
Visibility: 6 miles , 10 km
Cloud details: Mostly cloudy 1524 m
2020/07/10 18:50 EGQK 101850Z AUTO 31009KT 9999 BKN050/// 14/09 Q1017 RERA
EGPI - Islay/Port Ellen, United Kingdom
Distance from station: S 110mi, 177km
Updated: 10/07/2020 20:20
Clear
Clear
 Wind from WNW
Wind: WNW 16 mph , 26 km/h
Temperature: 12°C
Dew Point: 10°C
Humidity: 88%
Barometer: 1022 hPa
Clouds: Clear
Visibility: 6 miles , 10 km
2020/07/10 19:20 EGPI 101920Z AUTO 30014KT 9999 NCD 12/10 Q1022 RERA
 
EGQS - Lossiemouth Raf, United Kingdom
Distance from station: ENE 117mi, 188km
Updated: 10/07/2020 19:50
Nearby showers, Mostly cloudy
Nearby showers, Mostly cloudy
 Wind from NW
Wind: NW 14 mph , 22 km/h
Temperature: 14°C
Dew Point: 8°C
Humidity: 67%
Barometer: 1017 hPa
Summary: Nearby Showers
Clouds: Mostly cloudy
Visibility: 6 miles , 10 km
Cloud details: Few Clouds 1158 m
Mostly cloudy 1676 m
2020/07/10 18:50 EGQS 101850Z 31012KT 9999 VCSH FEW038 BKN055 14/08 Q1017 RMK BLU
EGPF - Glasgow Airport, United Kingdom
Distance from station: SE 121mi, 195km
Updated: 10/07/2020 20:50
Mostly cloudy
Mostly cloudy
 Wind from WSW
Wind: WSW 12 mph , 19 km/h
Temperature: 13°C
Dew Point: 8°C
Humidity: 72%
Barometer: 1020 hPa
Clouds: Mostly cloudy
Visibility: 6 miles , 10 km
Cloud details: Mostly cloudy 975 m
2020/07/10 19:50 EGPF 101950Z AUTO 25010KT 9999 BKN032 13/08 Q1020
 
EGEC - Campbeltown, United Kingdom
Distance from station: SSE 129mi, 207km
Updated: 10/07/2020 09:50
NOT Current
Partly cloudy
Partly cloudy
 Wind from WNW
Wind: WNW 12 mph , 19 km/h
Temperature: 14°C
Dew Point: 10°C
Humidity: 77%
Barometer: 1018 hPa
Clouds: Partly cloudy
Visibility: 6 miles , 10 km
Cloud details: Partly cloudy 732 m
2020/07/10 08:50 EGEC 100850Z 30010KT 270V330 9999 SCT024 14/10 Q1018
EGPN - Dundee/Riverside, United Kingdom
Distance from station: ESE 137mi, 221km
Updated: 10/07/2020 20:50
Partly cloudy
Partly cloudy
 Wind from WNW
Wind: WNW 7 mph , 11 km/h
Temperature: 15°C
Dew Point: 9°C
Humidity: 68%
Barometer: 1018 hPa
Clouds: Partly cloudy
Visibility: 6 miles , 10 km
Cloud details: Partly cloudy 1219 m
2020/07/10 19:50 EGPN 101950Z 29006KT 9999 SCT040 15/09 Q1018
 
EGPK - Prestwick(Civ/Na, United Kingdom
Distance from station: SSE 139mi, 224km
Updated: 10/07/2020 20:50
Partly cloudy
Partly cloudy
 Wind from WNW
Wind: WNW 18 mph , 30 km/h
Temperature: 13°C
Dew Point: 9°C
Humidity: 77%
Barometer: 1021 hPa
Clouds: Partly cloudy
Visibility: 6 miles , 10 km
Cloud details: Few Clouds 427 m
Partly cloudy 1219 m
2020/07/10 19:50 EGPK 101950Z 30016KT 9999 FEW014 SCT040 13/09 Q1021
EGQL - Leuchars Raf, United Kingdom
Distance from station: ESE 145mi, 233km
Updated: 10/07/2020 19:50
Nearby showers, Partly cloudy
Nearby showers, Partly cloudy
 Wind from ESE
Wind: ESE 6 mph , 9 km/h
Temperature: 15°C
Dew Point: 10°C
Humidity: 72%
Barometer: 1017 hPa
Summary: Nearby Showers
Clouds: Partly cloudy
Visibility: 6 miles , 10 km
Cloud details: Few Clouds 823 m
Partly cloudy 1219 m
2020/07/10 18:50 EGQL 101850Z 11005KT 9999 VCSH FEW027 SCT040 15/10 Q1017 BLU
 
EGPH - Edinburgh Airpor, United Kingdom
Distance from station: SE 145mi, 234km
Updated: 10/07/2020 20:50
Few Clouds
Few Clouds
 Wind from W
Wind: W 9 mph , 15 km/h
Temperature: 15°C
Dew Point: 8°C
Humidity: 63%
Barometer: 1019 hPa
Clouds: Few Clouds
Visibility: 6 miles , 10 km
Cloud details: Few Clouds 1067 m
2020/07/10 19:50 EGPH 101950Z 28008KT 9999 FEW035 15/08 Q1019
EGPC - Wick, United Kingdom
Distance from station: NE 146mi, 234km
Updated: 10/07/2020 20:50
Partly cloudy
Partly cloudy
 Wind from NW
Wind: NW 13 mph , 20 km/h
Temperature: 12°C
Dew Point: 9°C
Humidity: 82%
Barometer: 1017 hPa
Clouds: Partly cloudy
Visibility: 6 miles , 10 km
Cloud details: Few Clouds 549 m
Partly cloudy 762 m
2020/07/10 19:50 EGPC 101950Z AUTO 31011KT 9999 FEW018/// SCT025/// 12/09 Q1017

-

free counters
QR Code Twitter Scottish Weather Network UK Weather Network
Argyll House B & B

Argyll House B & B is situated in North West Skye and is the perfect base to see all that the Isle of Skye has to offer. Bookings are been taken for 2021